Uncorked — WDJ4013 — position and weather

sailwx.info

Track history (hours):
 
Tides and Currents Weather Stations Pressure Air Temp Water Temp Dewpoint Dewpoint Depression Visibility Wind Speed Wind Dir Waves Ship Positions

Uncorked

Owner: Pette, Gregory A, miramar, FL. More information available from US FCC via Universal Licensing System and Coast Guard Vessel Documentation Center.

Last reported at 2017-Nov-20 00:28 UTC. Time now 2017-Nov-20 17:09 UTC.
Position N 26°13' W 080°06'.

Length 15 m.

Type: Pleasure craft. MMSI: 367773560.

Date/timePositionNaut miles runAvg speedWind from/ knotsBaromVisibWave heightAir tempDewpointWater temp
2017-Nov-20 00:28N 26°13' W 080°06'0 0.0
2017-Nov-19 23:58N 26°13' W 080°06'0 0.0
2017-Nov-19 22:58N 26°13' W 080°06'2 0.9
2017-Nov-19 21:01N 26°11' W 080°06'0 0.2
2017-Nov-19 20:59N 26°11' W 080°06'3 5.3
2017-Nov-19 20:30N 26°14' W 080°06'2 2.5
2017-Nov-19 19:53N 26°16' W 080°05'715.9
2017-Nov-19 19:25N 26°08' W 080°05'5 9.9
2017-Nov-19 18:55N 26°04' W 080°08'0 0.5
2017-Nov-19 18:28N 26°04' W 080°08'0 0.0
2017-Nov-19 17:58N 26°04' W 080°08'0 0.0
2017-Nov-19 17:28N 26°04' W 080°08'0 0.0
2017-Nov-19 16:58N 26°04' W 080°08'0 0.0
2017-Nov-19 16:28N 26°04' W 080°08'0 0.0
2017-Nov-19 15:58N 26°04' W 080°08'0 0.0
2017-Nov-19 15:28N 26°04' W 080°08'0 0.0
2017-Nov-19 14:55N 26°04' W 080°08'0 0.0
2017-Nov-19 14:28N 26°04' W 080°08'0 0.0
2017-Nov-19 13:40N 26°04' W 080°08'0 0.0
2017-Nov-19 13:25N 26°04' W 080°08'0 0.0
2017-Nov-19 12:54N 26°04' W 080°08'0 0.0
2017-Nov-19 12:24N 26°04' W 080°08'0 0.0
2017-Nov-19 11:51N 26°04' W 080°08'0 0.0
2017-Nov-19 11:21N 26°04' W 080°08'0 0.0
2017-Nov-19 10:51N 26°04' W 080°08'0 0.0
2017-Nov-19 10:30N 26°04' W 080°08'0 0.0
2017-Nov-19 10:00N 26°04' W 080°08'0 0.0
2017-Nov-19 09:30N 26°04' W 080°08'0 0.0
2017-Nov-19 09:00N 26°04' W 080°08'0 0.0
2017-Nov-19 08:30N 26°04' W 080°08'0 0.0
2017-Nov-19 08:00N 26°04' W 080°08'0 0.0
2017-Nov-19 07:30N 26°04' W 080°08'0 0.0
2017-Nov-19 06:48N 26°04' W 080°08'0 0.0
2017-Nov-19 06:30N 26°04' W 080°08'0 0.0
2017-Nov-19 06:00N 26°04' W 080°08'0 0.0
2017-Nov-19 05:29N 26°04' W 080°08'0 0.0
2017-Nov-19 04:59N 26°04' W 080°08'0 0.0
2017-Nov-19 04:29N 26°04' W 080°08'0 0.0
2017-Nov-19 03:59N 26°04' W 080°08'0 0.0
2017-Nov-19 03:29N 26°04' W 080°08'0 0.0
2017-Nov-19 02:56N 26°04' W 080°08'0 0.0
2017-Nov-19 02:26N 26°04' W 080°08'0 0.0
2017-Nov-19 01:56N 26°04' W 080°08'0 0.0
2017-Nov-19 01:26N 26°04' W 080°08'0 0.0
2017-Nov-19 00:53N 26°04' W 080°08'0 0.0
2017-Nov-19 00:26N 26°04' W 080°08'0 0.0
2017-Nov-18 23:53N 26°04' W 080°08'0 0.0
2017-Nov-18 23:23N 26°04' W 080°08'0 0.0
2017-Nov-18 22:53N 26°04' W 080°08'0 0.0
2017-Nov-18 22:23N 26°04' W 080°08'0 0.0
2017-Nov-18 21:53N 26°04' W 080°08'0 0.0
2017-Nov-18 21:20N 26°04' W 080°08'0 0.0
2017-Nov-18 20:52N 26°04' W 080°08'0 0.0
2017-Nov-18 20:19N 26°04' W 080°08'0 0.0
2017-Nov-18 19:49N 26°04' W 080°08'0 0.0
2017-Nov-18 19:19N 26°04' W 080°08'0 0.0
2017-Nov-18 18:58N 26°04' W 080°08'0 0.0
2017-Nov-18 18:19N 26°04' W 080°08'0 0.0
2017-Nov-18 17:55N 26°04' W 080°08'0 0.0
2017-Nov-18 17:25N 26°04' W 080°08'0 0.0
2017-Nov-18 16:55N 26°04' W 080°08'0 0.0
2017-Nov-18 16:22N 26°04' W 080°08'0 0.0
2017-Nov-18 15:52N 26°04' W 080°08'0 0.0
2017-Nov-18 15:22N 26°04' W 080°08'0 0.0
2017-Nov-18 14:52N 26°04' W 080°08'0 0.0
2017-Nov-18 14:22N 26°04' W 080°08'0 0.0
2017-Nov-18 13:52N 26°04' W 080°08'0 0.0
2017-Nov-18 13:18N 26°04' W 080°08'0 0.0
2017-Nov-18 13:00N 26°04' W 080°08'0 0.0
2017-Nov-18 12:30N 26°04' W 080°08'0 0.0
2017-Nov-18 12:00N 26°04' W 080°08'0 0.0
2017-Nov-18 11:18N 26°04' W 080°08'0 0.0
2017-Nov-18 11:00N 26°04' W 080°08'0 0.0
2017-Nov-18 10:30N 26°04' W 080°08'0 0.0
2017-Nov-18 10:00N 26°04' W 080°08'0 0.0
2017-Nov-18 09:30N 26°04' W 080°08'0 0.0
2017-Nov-18 08:57N 26°04' W 080°08'0 0.0
2017-Nov-18 08:30N 26°04' W 080°08'0 0.0
2017-Nov-18 08:00N 26°04' W 080°08'0 0.0
2017-Nov-18 07:30N 26°04' W 080°08'0 0.0
2017-Nov-18 07:00N 26°04' W 080°08'0 0.0
2017-Nov-18 06:30N 26°04' W 080°08'0 0.0
2017-Nov-18 05:57N 26°04' W 080°08'0 0.0
2017-Nov-18 05:24N 26°04' W 080°08'0 0.0
2017-Nov-18 04:56N 26°04' W 080°08'0 0.0
2017-Nov-18 04:26N 26°04' W 080°08'0 0.0
2017-Nov-18 03:56N 26°04' W 080°08'0 0.0
2017-Nov-18 03:26N 26°04' W 080°08'0 0.0
2017-Nov-18 02:53N 26°04' W 080°08'0 0.0
2017-Nov-18 02:23N 26°04' W 080°08'0 0.0
2017-Nov-18 01:53N 26°04' W 080°08'0 0.0
2017-Nov-18 01:23N 26°04' W 080°08'0 0.0
2017-Nov-18 00:53N 26°04' W 080°08'0 0.0
2017-Nov-18 00:23N 26°04' W 080°08'0 0.0
2017-Nov-17 23:50N 26°04' W 080°08'0 0.0
2017-Nov-17 23:17N 26°04' W 080°08'0 0.0
2017-Nov-17 22:50N 26°04' W 080°08'0 0.0
2017-Nov-17 22:29N 26°04' W 080°08'0 0.0
2017-Nov-17 21:50N 26°04' W 080°08'0 0.0
2017-Nov-17 21:29N 26°04' W 080°08'0 0.0
2017-Nov-17 20:59N 26°04' W 080°08'0 0.0
2017-Nov-17 20:28N 26°04' W 080°08'0 0.0
2017-Nov-17 19:58N 26°04' W 080°08'0 0.0
2017-Nov-17 19:28N 26°04' W 080°08'0 0.0
2017-Nov-17 18:58N 26°04' W 080°08'0 0.0
2017-Nov-17 18:28N 26°04' W 080°08'0 0.0
2017-Nov-17 17:58N 26°04' W 080°08'0 0.0
2017-Nov-17 17:25N 26°04' W 080°08'0 0.0
2017-Nov-17 16:58N 26°04' W 080°08'0 0.0
2017-Nov-17 16:28N 26°04' W 080°08'0 0.0
2017-Nov-17 15:55N 26°04' W 080°08'0 0.0
2017-Nov-17 15:28N 26°04' W 080°08'0 0.0
2017-Nov-17 14:58N 26°04' W 080°08'0 0.0
2017-Nov-17 14:25N 26°04' W 080°08'0 0.0
2017-Nov-17 13:55N 26°04' W 080°08'0 0.0
2017-Nov-17 13:25N 26°04' W 080°08'0 0.0
2017-Nov-17 12:52N 26°04' W 080°08'0 0.0
2017-Nov-17 12:24N 26°04' W 080°08'0 0.0
2017-Nov-17 11:54N 26°04' W 080°08'0 0.0
2017-Nov-17 11:18N 26°04' W 080°08'0 0.0
2017-Nov-17 10:51N 26°04' W 080°08'0 0.0
2017-Nov-17 10:21N 26°04' W 080°08'0 0.0
2017-Nov-17 10:00N 26°04' W 080°08'0 0.0
2017-Nov-17 09:30N 26°04' W 080°08'0 0.0
2017-Nov-17 08:48N 26°04' W 080°08'0 0.0
2017-Nov-17 08:30N 26°04' W 080°08'0 0.0
2017-Nov-17 08:00N 26°04' W 080°08'0 0.0
2017-Nov-17 07:30N 26°04' W 080°08'0 0.0
2017-Nov-17 07:00N 26°04' W 080°08'0 0.0
2017-Nov-17 06:30N 26°04' W 080°08'0 0.0
2017-Nov-17 06:00N 26°04' W 080°08'0 0.0
2017-Nov-17 05:29N 26°04' W 080°08'0 0.0
2017-Nov-17 04:59N 26°04' W 080°08'0 0.0
2017-Nov-17 04:29N 26°04' W 080°08'0 0.0
2017-Nov-17 03:59N 26°04' W 080°08'0 0.0
2017-Nov-17 03:26N 26°04' W 080°08'0 0.0
2017-Nov-17 02:56N 26°04' W 080°08'0 0.0
2017-Nov-17 02:26N 26°04' W 080°08'0 0.0
2017-Nov-17 01:56N 26°04' W 080°08'0 0.0
2017-Nov-17 01:26N 26°04' W 080°08'0 0.0
2017-Nov-17 00:56N 26°04' W 080°08'0 0.0
2017-Nov-17 00:20N 26°04' W 080°08'0 0.0
2017-Nov-16 23:53N 26°04' W 080°08'0 0.0
2017-Nov-16 23:23N 26°04' W 080°08'0 0.0
2017-Nov-16 22:53N 26°04' W 080°08'0 0.0
2017-Nov-16 22:23N 26°04' W 080°08'0 0.0
2017-Nov-16 21:50N 26°04' W 080°08'0 0.0
2017-Nov-16 21:19N 26°04' W 080°08'0 0.0
2017-Nov-16 20:46N 26°04' W 080°08'0 0.0
2017-Nov-16 16:19N 26°04' W 080°08'0 0.0
2017-Nov-16 15:55N 26°04' W 080°08'0 0.0
2017-Nov-16 15:19N 26°04' W 080°08'0 0.0
2017-Nov-16 14:52N 26°04' W 080°08'0 0.0
2017-Nov-16 14:22N 26°04' W 080°08'0 0.0
2017-Nov-16 13:52N 26°04' W 080°08'0 0.0
2017-Nov-16 13:19N 26°04' W 080°08'0 0.0
2017-Nov-16 12:52N 26°04' W 080°08'0 0.0
2017-Nov-16 12:22N 26°04' W 080°08'0 0.0
2017-Nov-16 11:49N 26°04' W 080°08'0 0.0
2017-Nov-16 11:19N 26°04' W 080°08'0 0.0
2017-Nov-16 10:49N 26°04' W 080°08'0 0.0
2017-Nov-16 10:19N 26°04' W 080°08'0 0.0
2017-Nov-16 09:58N 26°04' W 080°08'0 0.0
2017-Nov-16 09:19N 26°04' W 080°08'0 0.0
2017-Nov-16 08:58N 26°04' W 080°08'0 0.0
2017-Nov-16 08:30N 26°04' W 080°08'0 0.0
2017-Nov-16 08:00N 26°04' W 080°08'0 0.0
2017-Nov-16 07:29N 26°04' W 080°08'0 0.0
2017-Nov-16 06:59N 26°04' W 080°08'0 0.0
2017-Nov-16 06:29N 26°04' W 080°08'0 0.0
2017-Nov-16 05:59N 26°04' W 080°08'0 0.0
2017-Nov-16 05:29N 26°04' W 080°08'0 0.0
2017-Nov-16 04:59N 26°04' W 080°08'0 0.0
2017-Nov-16 04:29N 26°04' W 080°08'0 0.0
2017-Nov-16 03:58N 26°04' W 080°08'0 0.0
2017-Nov-16 03:28N 26°04' W 080°08'0 0.0
2017-Nov-16 02:58N 26°04' W 080°08'0 0.0
2017-Nov-16 02:28N 26°04' W 080°08'0 0.0
2017-Nov-16 01:55N 26°04' W 080°08'0 0.0
2017-Nov-16 01:28N 26°04' W 080°08'0 0.0
2017-Nov-16 00:40N 26°04' W 080°08'0 0.0
2017-Nov-16 00:28N 26°04' W 080°08'0 0.0
2017-Nov-15 23:58N 26°04' W 080°08'0 0.0
2017-Nov-15 23:28N 26°04' W 080°08'0 0.0
2017-Nov-15 22:43N 26°04' W 080°08'0 0.0
2017-Nov-15 22:25N 26°04' W 080°08'0 0.0
2017-Nov-15 21:56N 26°04' W 080°08'0 0.0
2017-Nov-15 21:26N 26°04' W 080°08'0 0.0
2017-Nov-15 20:56N 26°04' W 080°08'0 0.0
2017-Nov-15 20:26N 26°04' W 080°08'0 0.0
2017-Nov-15 19:56N 26°04' W 080°08'0 0.0
2017-Nov-15 19:26N 26°04' W 080°08'0 0.0
2017-Nov-15 18:56N 26°04' W 080°08'0 0.0
2017-Nov-15 18:26N 26°04' W 080°08'0 0.0
2017-Nov-15 17:56N 26°04' W 080°08'0 0.0
2017-Nov-15 17:23N 26°04' W 080°08'0 0.0
2017-Nov-15 16:56N 26°04' W 080°08'0 0.0
2017-Nov-15 16:23N 26°04' W 080°08'0 0.0
2017-Nov-15 15:53N 26°04' W 080°08'0 0.0
2017-Nov-15 15:23N 26°04' W 080°08'0 0.0
2017-Nov-15 14:53N 26°04' W 080°08'0 0.0
2017-Nov-15 14:23N 26°04' W 080°08'0 0.0
2017-Nov-15 13:50N 26°04' W 080°08'0 0.0
2017-Nov-15 13:20N 26°04' W 080°08'0 0.0
2017-Nov-15 12:46N 26°04' W 080°08'0 0.0
2017-Nov-15 12:28N 26°04' W 080°08'0 0.0
2017-Nov-15 11:58N 26°04' W 080°08'0 0.0
2017-Nov-15 11:25N 26°04' W 080°08'0 0.0
2017-Nov-15 10:55N 26°04' W 080°08'0 0.0
2017-Nov-15 10:28N 26°04' W 080°08'0 0.0
2017-Nov-15 09:58N 26°04' W 080°08'0 0.0
2017-Nov-15 09:28N 26°04' W 080°08'0 0.0
2017-Nov-15 08:55N 26°04' W 080°08'0 0.0
2017-Nov-15 08:25N 26°04' W 080°08'0 0.0
2017-Nov-15 07:55N 26°04' W 080°08'0 0.0
2017-Nov-15 07:25N 26°04' W 080°08'0 0.0
2017-Nov-15 06:55N 26°04' W 080°08'0 0.0
2017-Nov-15 06:25N 26°04' W 080°08'0 0.0
2017-Nov-15 05:51N 26°04' W 080°08'0 0.0
2017-Nov-15 05:30N 26°04' W 080°08'0 0.0
2017-Nov-15 05:00N 26°04' W 080°08'0 0.0
2017-Nov-15 04:30N 26°04' W 080°08'0 0.0
2017-Nov-15 04:00N 26°04' W 080°08'0 0.0
2017-Nov-15 03:30N 26°04' W 080°08'0 0.0
2017-Nov-15 03:00N 26°04' W 080°08'0 0.0
2017-Nov-15 02:30N 26°04' W 080°08'0 0.0
2017-Nov-15 02:00N 26°04' W 080°08'0 0.0
2017-Nov-15 01:30N 26°04' W 080°08'0 0.0
2017-Nov-15 00:57N 26°04' W 080°08'0 0.0
2017-Nov-15 00:27N 26°04' W 080°08'0 0.0
2017-Nov-14 23:56N 26°04' W 080°08'0 0.0
2017-Nov-14 23:26N 26°04' W 080°08'0 0.0
2017-Nov-14 22:56N 26°04' W 080°08'0 0.0
2017-Nov-14 22:20N 26°04' W 080°08'0 0.0
2017-Nov-14 21:53N 26°04' W 080°08'0 0.0
2017-Nov-14 21:23N 26°04' W 080°08'0 0.0
2017-Nov-14 20:53N 26°04' W 080°08'0 0.0
2017-Nov-14 20:23N 26°04' W 080°08'0 0.0
2017-Nov-14 19:53N 26°04' W 080°08'0 0.0
2017-Nov-14 19:20N 26°04' W 080°08'0 0.0
2017-Nov-14 18:50N 26°04' W 080°08'0 0.0
2017-Nov-14 18:20N 26°04' W 080°08'0 0.0
2017-Nov-14 17:50N 26°04' W 080°08'0 0.0
2017-Nov-14 17:29N 26°04' W 080°08'0 0.0
2017-Nov-14 16:59N 26°04' W 080°08'0 0.0
2017-Nov-14 16:29N 26°04' W 080°08'0 0.0
2017-Nov-14 15:58N 26°04' W 080°08'0 0.0
2017-Nov-14 15:28N 26°04' W 080°08'0 0.0
2017-Nov-14 14:58N 26°04' W 080°08'0 0.0
2017-Nov-14 14:28N 26°04' W 080°08'0 0.0
2017-Nov-14 13:58N 26°04' W 080°08'0 0.0
2017-Nov-14 13:28N 26°04' W 080°08'0 0.0
2017-Nov-14 12:58N 26°04' W 080°08'0 0.0
2017-Nov-14 12:28N 26°04' W 080°08'0 0.0
2017-Nov-14 11:58N 26°04' W 080°08'0 0.0
2017-Nov-14 11:28N 26°04' W 080°08'0 0.0
2017-Nov-14 10:58N 26°04' W 080°08'0 0.0
2017-Nov-14 10:28N 26°04' W 080°08'0 0.0
2017-Nov-14 09:58N 26°04' W 080°08'0 0.0
2017-Nov-14 09:25N 26°04' W 080°08'0 0.0
2017-Nov-14 08:55N 26°04' W 080°08'0 0.0
2017-Nov-14 08:25N 26°04' W 080°08'0 0.0
2017-Nov-14 07:55N 26°04' W 080°08'0 0.0
2017-Nov-14 07:24N 26°04' W 080°08'0 0.0
2017-Nov-14 06:54N 26°04' W 080°08'0 0.0
2017-Nov-14 06:24N 26°04' W 080°08'0 0.0
2017-Nov-14 05:51N 26°04' W 080°08'0 0.0
2017-Nov-14 05:21N 26°04' W 080°08'0 0.0
2017-Nov-14 04:51N 26°04' W 080°08'0 0.0
2017-Nov-14 04:18N 26°04' W 080°08'0 0.0
2017-Nov-14 04:00N 26°04' W 080°08'0 0.0
2017-Nov-14 03:21N 26°04' W 080°08'0 0.0
2017-Nov-14 03:00N 26°04' W 080°08'0 0.0
2017-Nov-14 02:30N 26°04' W 080°08'0 0.0
2017-Nov-14 02:00N 26°04' W 080°08'0 0.0
2017-Nov-14 01:30N 26°04' W 080°08'0 0.0
2017-Nov-14 01:00N 26°04' W 080°08'0 0.0
2017-Nov-14 00:30N 26°04' W 080°08'0 0.0
2017-Nov-14 00:00N 26°04' W 080°08'0 0.0
2017-Nov-13 23:30N 26°04' W 080°08'0 0.0
2017-Nov-13 22:59N 26°04' W 080°08'0 0.0
2017-Nov-13 22:29N 26°04' W 080°08'0 0.0
2017-Nov-13 21:59N 26°04' W 080°08'0 0.0
2017-Nov-13 01:56N 26°04' W 080°08'0 0.0
2017-Nov-13 01:23N 26°04' W 080°08'0 0.0
2017-Nov-13 00:59N 26°04' W 080°08'0 0.0
2017-Nov-13 00:29N 26°04' W 080°08'0 0.0
2017-Nov-12 23:50N 26°04' W 080°08'0 0.0
2017-Nov-12 23:29N 26°04' W 080°08'0 0.0
2017-Nov-12 22:59N 26°04' W 080°08'0 0.0
2017-Nov-12 22:20N 26°04' W 080°08'0 0.0
2017-Nov-12 21:50N 26°04' W 080°08'0 0.0
2017-Nov-12 21:17N 26°04' W 080°08'0 0.0
2017-Nov-12 20:53N 26°04' W 080°08'0 0.0
2017-Nov-12 20:23N 26°04' W 080°08'0 0.0
2017-Nov-12 19:50N 26°04' W 080°08'0 0.0
2017-Nov-12 19:20N 26°04' W 080°08'0 0.0
2017-Nov-12 18:53N 26°04' W 080°08'0 0.0
2017-Nov-12 18:20N 26°04' W 080°08'0 0.0
2017-Nov-12 17:58N 26°04' W 080°08'0 0.0
2017-Nov-12 17:28N 26°04' W 080°08'0 0.0
2017-Nov-12 16:58N 26°04' W 080°08'0 0.0
2017-Nov-12 16:13N 26°04' W 080°08'0 0.0
2017-Nov-12 15:58N 26°04' W 080°08'0 0.0
2017-Nov-12 15:28N 26°04' W 080°08'0 0.0
2017-Nov-12 14:49N 26°04' W 080°08'0 0.0
2017-Nov-12 14:19N 26°04' W 080°08'0 0.0
2017-Nov-12 13:49N 26°04' W 080°08'0 0.0
2017-Nov-12 13:22N 26°04' W 080°08'0 0.0
2017-Nov-12 12:52N 26°04' W 080°08'0 0.0
2017-Nov-12 12:22N 26°04' W 080°08'0 0.0
2017-Nov-12 11:37N 26°04' W 080°08'0 0.0
2017-Nov-12 11:22N 26°04' W 080°08'0 0.0
2017-Nov-12 10:40N 26°04' W 080°08'0 0.0
2017-Nov-12 10:25N 26°04' W 080°08'0 0.0
2017-Nov-12 09:52N 26°04' W 080°08'0 0.0
2017-Nov-12 09:22N 26°04' W 080°08'0 0.0
2017-Nov-12 08:55N 26°04' W 080°08'0 0.0
2017-Nov-12 08:25N 26°04' W 080°08'0 0.0
2017-Nov-12 07:55N 26°04' W 080°08'0 0.0
2017-Nov-12 07:28N 26°04' W 080°08'0 0.0
2017-Nov-12 06:58N 26°04' W 080°08'0 0.0
2017-Nov-12 06:28N 26°04' W 080°08'0 0.0
2017-Nov-12 05:58N 26°04' W 080°08'0 0.0
2017-Nov-12 05:25N 26°04' W 080°08'0 0.0
2017-Nov-12 04:58N 26°04' W 080°08'0 0.0
2017-Nov-12 04:28N 26°04' W 080°08'0 0.0
2017-Nov-12 03:55N 26°04' W 080°08'0 0.0
2017-Nov-12 03:28N 26°04' W 080°08'0 0.0
2017-Nov-12 02:58N 26°04' W 080°08'0 0.0
2017-Nov-12 02:28N 26°04' W 080°08'0 0.0
2017-Nov-12 01:58N 26°04' W 080°08'0 0.0
2017-Nov-12 01:28N 26°04' W 080°08'0 0.0
2017-Nov-12 00:58N 26°04' W 080°08'0 0.0
2017-Nov-12 00:28N 26°04' W 080°08'0 0.0
2017-Nov-11 23:55N 26°04' W 080°08'0 0.0
2017-Nov-11 23:28N 26°04' W 080°08'0 0.0
2017-Nov-11 22:58N 26°04' W 080°08'0 0.0
2017-Nov-11 22:28N 26°04' W 080°08'0 0.0
2017-Nov-11 21:55N 26°04' W 080°08'0 0.0
2017-Nov-11 21:28N 26°04' W 080°08'0 0.0
2017-Nov-11 20:58N 26°04' W 080°08'0 0.0
2017-Nov-11 20:28N 26°04' W 080°08'0 0.0
2017-Nov-11 19:58N 26°04' W 080°08'0 0.0
2017-Nov-11 19:16N 26°04' W 080°08'0 0.0
2017-Nov-11 18:49N 26°04' W 080°08'0 0.0
2017-Nov-11 18:19N 26°04' W 080°08'0 0.0
2017-Nov-11 17:58N 26°04' W 080°08'0 0.0
2017-Nov-11 17:19N 26°04' W 080°08'0 0.0
2017-Nov-11 16:49N 26°04' W 080°08'0 0.0
2017-Nov-11 16:07N 26°04' W 080°08'0 0.0
2017-Nov-11 15:52N 26°04' W 080°08'0 0.0
2017-Nov-11 15:22N 26°04' W 080°08'0 0.0
2017-Nov-11 14:52N 26°04' W 080°08'0 0.0
2017-Nov-11 14:22N 26°04' W 080°08'0 0.0
2017-Nov-11 13:52N 26°04' W 080°08'0 0.0
2017-Nov-11 13:25N 26°04' W 080°08'0 0.0
2017-Nov-11 12:55N 26°04' W 080°08'0 0.0
2017-Nov-11 12:25N 26°04' W 080°08'0 0.0
2017-Nov-11 11:55N 26°04' W 080°08'0 0.0
2017-Nov-11 11:25N 26°04' W 080°08'0 0.0
2017-Nov-11 10:55N 26°04' W 080°08'0 0.0
2017-Nov-11 10:28N 26°04' W 080°08'0 0.0
2017-Nov-11 09:55N 26°04' W 080°08'0 0.0
2017-Nov-11 09:28N 26°04' W 080°08'0 0.0
2017-Nov-11 08:55N 26°04' W 080°08'0 0.0
2017-Nov-11 08:25N 26°04' W 080°08'0 0.0
2017-Nov-11 07:55N 26°04' W 080°08'0 0.0
2017-Nov-11 07:25N 26°04' W 080°08'0 0.0
2017-Nov-11 06:55N 26°04' W 080°08'0 0.0
2017-Nov-11 06:25N 26°04' W 080°08'0 0.0
2017-Nov-11 05:55N 26°04' W 080°08'0 0.0
2017-Nov-11 05:28N 26°04' W 080°08'0 0.0
2017-Nov-11 04:58N 26°04' W 080°08'0 0.0
2017-Nov-11 04:28N 26°04' W 080°08'0 0.0
2017-Nov-11 03:58N 26°04' W 080°08'0 0.0
2017-Nov-11 03:28N 26°04' W 080°08'0 0.0
2017-Nov-11 02:58N 26°04' W 080°08'0 0.0
2017-Nov-11 02:28N 26°04' W 080°08'0 0.0
2017-Nov-11 01:58N 26°04' W 080°08'0 0.0
2017-Nov-11 01:28N 26°04' W 080°08'0 0.0
2017-Nov-11 00:58N 26°04' W 080°08'0 0.0
2017-Nov-11 00:28N 26°04' W 080°08'0 0.0
2017-Nov-10 23:58N 26°04' W 080°08'0 0.0
2017-Nov-10 23:01N 26°04' W 080°08'0 0.1
2017-Nov-10 22:58N 26°04' W 080°08'0 0.0
2017-Nov-10 22:28N 26°04' W 080°08'0 0.0
2017-Nov-10 21:58N 26°04' W 080°08'0 0.0
2017-Nov-10 21:28N 26°04' W 080°08'0 0.0
2017-Nov-10 20:52N 26°04' W 080°08'0 0.0
2017-Nov-10 20:28N 26°04' W 080°08'0 0.0
2017-Nov-10 19:55N 26°04' W 080°08'0 0.0
2017-Nov-10 19:28N 26°04' W 080°08'0 0.0
2017-Nov-10 18:49N 26°04' W 080°08'0 0.0
2017-Nov-10 18:22N 26°04' W 080°08'0 0.0
2017-Nov-10 17:58N 26°04' W 080°08'0 0.0
2017-Nov-10 17:31N 26°04' W 080°08'0 0.0
2017-Nov-10 16:52N 26°04' W 080°08'0 0.0
2017-Nov-10 16:28N 26°04' W 080°08'0 0.0
2017-Nov-10 15:52N 26°04' W 080°08'0 0.0
2017-Nov-10 15:25N 26°04' W 080°08'0 0.0
2017-Nov-10 14:55N 26°04' W 080°08'0 0.0
2017-Nov-10 14:25N 26°04' W 080°08'0 0.0
2017-Nov-10 13:54N 26°04' W 080°08'0 0.0
2017-Nov-10 13:21N 26°04' W 080°08'0 0.0
2017-Nov-10 12:58N 26°04' W 080°08'0 0.0
2017-Nov-10 12:28N 26°04' W 080°08'0 0.0
2017-Nov-10 11:57N 26°04' W 080°08'0 0.0
2017-Nov-10 11:21N 26°04' W 080°08'0 0.0
2017-Nov-10 10:57N 26°04' W 080°08'0 0.0
2017-Nov-10 10:24N 26°04' W 080°08'0 0.0
2017-Nov-10 10:01N 26°04' W 080°08'0 0.0
2017-Nov-10 09:27N 26°04' W 080°08'0 0.0
2017-Nov-10 09:00N 26°04' W 080°08'0 0.0
2017-Nov-10 08:30N 26°04' W 080°08'0 0.0
2017-Nov-10 08:00N 26°04' W 080°08'0 0.0
2017-Nov-10 07:30N 26°04' W 080°08'0 0.0
2017-Nov-10 07:00N 26°04' W 080°08'0 0.0
2017-Nov-10 06:30N 26°04' W 080°08'0 0.0
2017-Nov-10 06:00N 26°04' W 080°08'0 0.0
2017-Nov-10 05:30N 26°04' W 080°08'0 0.0
2017-Nov-10 05:00N 26°04' W 080°08'0 0.0
2017-Nov-10 04:30N 26°04' W 080°08'0 0.0
2017-Nov-10 04:01N 26°04' W 080°08'0 0.0
2017-Nov-10 03:30N 26°04' W 080°08'0 0.0
2017-Nov-10 02:51N 26°04' W 080°08'0 0.0
2017-Nov-10 02:30N 26°04' W 080°08'0 0.0
2017-Nov-10 02:00N 26°04' W 080°08'0 0.0
2017-Nov-10 01:21N 26°04' W 080°08'0 0.0
2017-Nov-10 00:51N 26°04' W 080°08'  
Track history (hours):
 
Tides and Currents Weather Stations Pressure Air Temp Water Temp Dewpoint Dewpoint Depression Visibility Wind Speed Wind Dir Waves Ship Positions

Uncorked

Owner: Pette, Gregory A, miramar, FL. More information available from US FCC via Universal Licensing System and Coast Guard Vessel Documentation Center.

Last reported at 2017-Nov-20 00:28 UTC. Time now 2017-Nov-20 17:09 UTC.
Position N 26°13' W 080°06'.

Length 15 m.

Type: Pleasure craft. MMSI: 367773560.

Date/timePositionNaut miles runAvg speedWind from/ knotsBaromVisibWave heightAir tempDewpointWater temp
2017-Nov-20 00:28N 26°13' W 080°06'0 0.0
2017-Nov-19 23:58N 26°13' W 080°06'0 0.0
2017-Nov-19 22:58N 26°13' W 080°06'2 0.9
2017-Nov-19 21:01N 26°11' W 080°06'0 0.2
2017-Nov-19 20:59N 26°11' W 080°06'3 5.3
2017-Nov-19 20:30N 26°14' W 080°06'2 2.5
2017-Nov-19 19:53N 26°16' W 080°05'715.9
2017-Nov-19 19:25N 26°08' W 080°05'5 9.9
2017-Nov-19 18:55N 26°04' W 080°08'0 0.5
2017-Nov-19 18:28N 26°04' W 080°08'0 0.0
2017-Nov-19 17:58N 26°04' W 080°08'0 0.0
2017-Nov-19 17:28N 26°04' W 080°08'0 0.0
2017-Nov-19 16:58N 26°04' W 080°08'0 0.0
2017-Nov-19 16:28N 26°04' W 080°08'0 0.0
2017-Nov-19 15:58N 26°04' W 080°08'0 0.0
2017-Nov-19 15:28N 26°04' W 080°08'0 0.0
2017-Nov-19 14:55N 26°04' W 080°08'0 0.0
2017-Nov-19 14:28N 26°04' W 080°08'0 0.0
2017-Nov-19 13:40N 26°04' W 080°08'0 0.0
2017-Nov-19 13:25N 26°04' W 080°08'0 0.0
2017-Nov-19 12:54N 26°04' W 080°08'0 0.0
2017-Nov-19 12:24N 26°04' W 080°08'0 0.0
2017-Nov-19 11:51N 26°04' W 080°08'0 0.0
2017-Nov-19 11:21N 26°04' W 080°08'0 0.0
2017-Nov-19 10:51N 26°04' W 080°08'0 0.0
2017-Nov-19 10:30N 26°04' W 080°08'0 0.0
2017-Nov-19 10:00N 26°04' W 080°08'0 0.0
2017-Nov-19 09:30N 26°04' W 080°08'0 0.0
2017-Nov-19 09:00N 26°04' W 080°08'0 0.0
2017-Nov-19 08:30N 26°04' W 080°08'0 0.0
2017-Nov-19 08:00N 26°04' W 080°08'0 0.0
2017-Nov-19 07:30N 26°04' W 080°08'0 0.0
2017-Nov-19 06:48N 26°04' W 080°08'0 0.0
2017-Nov-19 06:30N 26°04' W 080°08'0 0.0
2017-Nov-19 06:00N 26°04' W 080°08'0 0.0
2017-Nov-19 05:29N 26°04' W 080°08'0 0.0
2017-Nov-19 04:59N 26°04' W 080°08'0 0.0
2017-Nov-19 04:29N 26°04' W 080°08'0 0.0
2017-Nov-19 03:59N 26°04' W 080°08'0 0.0
2017-Nov-19 03:29N 26°04' W 080°08'0 0.0
2017-Nov-19 02:56N 26°04' W 080°08'0 0.0
2017-Nov-19 02:26N 26°04' W 080°08'0 0.0
2017-Nov-19 01:56N 26°04' W 080°08'0 0.0
2017-Nov-19 01:26N 26°04' W 080°08'0 0.0
2017-Nov-19 00:53N 26°04' W 080°08'0 0.0
2017-Nov-19 00:26N 26°04' W 080°08'0 0.0
2017-Nov-18 23:53N 26°04' W 080°08'0 0.0
2017-Nov-18 23:23N 26°04' W 080°08'0 0.0
2017-Nov-18 22:53N 26°04' W 080°08'0 0.0
2017-Nov-18 22:23N 26°04' W 080°08'0 0.0
2017-Nov-18 21:53N 26°04' W 080°08'0 0.0
2017-Nov-18 21:20N 26°04' W 080°08'0 0.0
2017-Nov-18 20:52N 26°04' W 080°08'0 0.0
2017-Nov-18 20:19N 26°04' W 080°08'0 0.0
2017-Nov-18 19:49N 26°04' W 080°08'0 0.0
2017-Nov-18 19:19N 26°04' W 080°08'0 0.0
2017-Nov-18 18:58N 26°04' W 080°08'0 0.0
2017-Nov-18 18:19N 26°04' W 080°08'0 0.0
2017-Nov-18 17:55N 26°04' W 080°08'0 0.0
2017-Nov-18 17:25N 26°04' W 080°08'0 0.0
2017-Nov-18 16:55N 26°04' W 080°08'0 0.0
2017-Nov-18 16:22N 26°04' W 080°08'0 0.0
2017-Nov-18 15:52N 26°04' W 080°08'0 0.0
2017-Nov-18 15:22N 26°04' W 080°08'0 0.0
2017-Nov-18 14:52N 26°04' W 080°08'0 0.0
2017-Nov-18 14:22N 26°04' W 080°08'0 0.0
2017-Nov-18 13:52N 26°04' W 080°08'0 0.0
2017-Nov-18 13:18N 26°04' W 080°08'0 0.0
2017-Nov-18 13:00N 26°04' W 080°08'0 0.0
2017-Nov-18 12:30N 26°04' W 080°08'0 0.0
2017-Nov-18 12:00N 26°04' W 080°08'0 0.0
2017-Nov-18 11:18N 26°04' W 080°08'0 0.0
2017-Nov-18 11:00N 26°04' W 080°08'0 0.0
2017-Nov-18 10:30N 26°04' W 080°08'0 0.0
2017-Nov-18 10:00N 26°04' W 080°08'0 0.0
2017-Nov-18 09:30N 26°04' W 080°08'0 0.0
2017-Nov-18 08:57N 26°04' W 080°08'0 0.0
2017-Nov-18 08:30N 26°04' W 080°08'0 0.0
2017-Nov-18 08:00N 26°04' W 080°08'0 0.0
2017-Nov-18 07:30N 26°04' W 080°08'0 0.0
2017-Nov-18 07:00N 26°04' W 080°08'0 0.0
2017-Nov-18 06:30N 26°04' W 080°08'0 0.0
2017-Nov-18 05:57N 26°04' W 080°08'0 0.0
2017-Nov-18 05:24N 26°04' W 080°08'0 0.0
2017-Nov-18 04:56N 26°04' W 080°08'0 0.0
2017-Nov-18 04:26N 26°04' W 080°08'0 0.0
2017-Nov-18 03:56N 26°04' W 080°08'0 0.0
2017-Nov-18 03:26N 26°04' W 080°08'0 0.0
2017-Nov-18 02:53N 26°04' W 080°08'0 0.0
2017-Nov-18 02:23N 26°04' W 080°08'0 0.0
2017-Nov-18 01:53N 26°04' W 080°08'0 0.0
2017-Nov-18 01:23N 26°04' W 080°08'0 0.0
2017-Nov-18 00:53N 26°04' W 080°08'0 0.0
2017-Nov-18 00:23N 26°04' W 080°08'0 0.0
2017-Nov-17 23:50N 26°04' W 080°08'0 0.0
2017-Nov-17 23:17N 26°04' W 080°08'0 0.0
2017-Nov-17 22:50N 26°04' W 080°08'0 0.0
2017-Nov-17 22:29N 26°04' W 080°08'0 0.0
2017-Nov-17 21:50N 26°04' W 080°08'0 0.0
2017-Nov-17 21:29N 26°04' W 080°08'0 0.0
2017-Nov-17 20:59N 26°04' W 080°08'0 0.0
2017-Nov-17 20:28N 26°04' W 080°08'0 0.0
2017-Nov-17 19:58N 26°04' W 080°08'0 0.0
2017-Nov-17 19:28N 26°04' W 080°08'0 0.0
2017-Nov-17 18:58N 26°04' W 080°08'0 0.0
2017-Nov-17 18:28N 26°04' W 080°08'0 0.0
2017-Nov-17 17:58N 26°04' W 080°08'0 0.0
2017-Nov-17 17:25N 26°04' W 080°08'0 0.0
2017-Nov-17 16:58N 26°04' W 080°08'0 0.0
2017-Nov-17 16:28N 26°04' W 080°08'0 0.0
2017-Nov-17 15:55N 26°04' W 080°08'0 0.0
2017-Nov-17 15:28N 26°04' W 080°08'0 0.0
2017-Nov-17 14:58N 26°04' W 080°08'0 0.0
2017-Nov-17 14:25N 26°04' W 080°08'0 0.0
2017-Nov-17 13:55N 26°04' W 080°08'0 0.0
2017-Nov-17 13:25N 26°04' W 080°08'0 0.0
2017-Nov-17 12:52N 26°04' W 080°08'0 0.0
2017-Nov-17 12:24N 26°04' W 080°08'0 0.0
2017-Nov-17 11:54N 26°04' W 080°08'0 0.0
2017-Nov-17 11:18N 26°04' W 080°08'0 0.0
2017-Nov-17 10:51N 26°04' W 080°08'0 0.0
2017-Nov-17 10:21N 26°04' W 080°08'0 0.0
2017-Nov-17 10:00N 26°04' W 080°08'0 0.0
2017-Nov-17 09:30N 26°04' W 080°08'0 0.0
2017-Nov-17 08:48N 26°04' W 080°08'0 0.0
2017-Nov-17 08:30N 26°04' W 080°08'0 0.0
2017-Nov-17 08:00N 26°04' W 080°08'0 0.0
2017-Nov-17 07:30N 26°04' W 080°08'0 0.0
2017-Nov-17 07:00N 26°04' W 080°08'0 0.0
2017-Nov-17 06:30N 26°04' W 080°08'0 0.0
2017-Nov-17 06:00N 26°04' W 080°08'0 0.0
2017-Nov-17 05:29N 26°04' W 080°08'0 0.0
2017-Nov-17 04:59N 26°04' W 080°08'0 0.0
2017-Nov-17 04:29N 26°04' W 080°08'0 0.0
2017-Nov-17 03:59N 26°04' W 080°08'0 0.0
2017-Nov-17 03:26N 26°04' W 080°08'0 0.0
2017-Nov-17 02:56N 26°04' W 080°08'0 0.0
2017-Nov-17 02:26N 26°04' W 080°08'0 0.0
2017-Nov-17 01:56N 26°04' W 080°08'0 0.0
2017-Nov-17 01:26N 26°04' W 080°08'0 0.0
2017-Nov-17 00:56N 26°04' W 080°08'0 0.0
2017-Nov-17 00:20N 26°04' W 080°08'0 0.0
2017-Nov-16 23:53N 26°04' W 080°08'0 0.0
2017-Nov-16 23:23N 26°04' W 080°08'0 0.0
2017-Nov-16 22:53N 26°04' W 080°08'0 0.0
2017-Nov-16 22:23N 26°04' W 080°08'0 0.0
2017-Nov-16 21:50N 26°04' W 080°08'0 0.0
2017-Nov-16 21:19N 26°04' W 080°08'0 0.0
2017-Nov-16 20:46N 26°04' W 080°08'0 0.0
2017-Nov-16 16:19N 26°04' W 080°08'0 0.0
2017-Nov-16 15:55N 26°04' W 080°08'0 0.0
2017-Nov-16 15:19N 26°04' W 080°08'0 0.0
2017-Nov-16 14:52N 26°04' W 080°08'0 0.0
2017-Nov-16 14:22N 26°04' W 080°08'0 0.0
2017-Nov-16 13:52N 26°04' W 080°08'0 0.0
2017-Nov-16 13:19N 26°04' W 080°08'0 0.0
2017-Nov-16 12:52N 26°04' W 080°08'0 0.0
2017-Nov-16 12:22N 26°04' W 080°08'0 0.0
2017-Nov-16 11:49N 26°04' W 080°08'0 0.0
2017-Nov-16 11:19N 26°04' W 080°08'0 0.0
2017-Nov-16 10:49N 26°04' W 080°08'0 0.0
2017-Nov-16 10:19N 26°04' W 080°08'0 0.0
2017-Nov-16 09:58N 26°04' W 080°08'0 0.0
2017-Nov-16 09:19N 26°04' W 080°08'0 0.0
2017-Nov-16 08:58N 26°04' W 080°08'0 0.0
2017-Nov-16 08:30N 26°04' W 080°08'0 0.0
2017-Nov-16 08:00N 26°04' W 080°08'0 0.0
2017-Nov-16 07:29N 26°04' W 080°08'0 0.0
2017-Nov-16 06:59N 26°04' W 080°08'0 0.0
2017-Nov-16 06:29N 26°04' W 080°08'0 0.0
2017-Nov-16 05:59N 26°04' W 080°08'0 0.0
2017-Nov-16 05:29N 26°04' W 080°08'0 0.0
2017-Nov-16 04:59N 26°04' W 080°08'0 0.0
2017-Nov-16 04:29N 26°04' W 080°08'0 0.0
2017-Nov-16 03:58N 26°04' W 080°08'0 0.0
2017-Nov-16 03:28N 26°04' W 080°08'0 0.0
2017-Nov-16 02:58N 26°04' W 080°08'0 0.0
2017-Nov-16 02:28N 26°04' W 080°08'0 0.0
2017-Nov-16 01:55N 26°04' W 080°08'0 0.0
2017-Nov-16 01:28N 26°04' W 080°08'0 0.0
2017-Nov-16 00:40N 26°04' W 080°08'0 0.0
2017-Nov-16 00:28N 26°04' W 080°08'0 0.0
2017-Nov-15 23:58N 26°04' W 080°08'0 0.0
2017-Nov-15 23:28N 26°04' W 080°08'0 0.0
2017-Nov-15 22:43N 26°04' W 080°08'0 0.0
2017-Nov-15 22:25N 26°04' W 080°08'0 0.0
2017-Nov-15 21:56N 26°04' W 080°08'0 0.0
2017-Nov-15 21:26N 26°04' W 080°08'0 0.0
2017-Nov-15 20:56N 26°04' W 080°08'0 0.0
2017-Nov-15 20:26N 26°04' W 080°08'0 0.0
2017-Nov-15 19:56N 26°04' W 080°08'0 0.0
2017-Nov-15 19:26N 26°04' W 080°08'0 0.0
2017-Nov-15 18:56N 26°04' W 080°08'0 0.0
2017-Nov-15 18:26N 26°04' W 080°08'0 0.0
2017-Nov-15 17:56N 26°04' W 080°08'0 0.0
2017-Nov-15 17:23N 26°04' W 080°08'0 0.0
2017-Nov-15 16:56N 26°04' W 080°08'0 0.0
2017-Nov-15 16:23N 26°04' W 080°08'0 0.0
2017-Nov-15 15:53N 26°04' W 080°08'0 0.0
2017-Nov-15 15:23N 26°04' W 080°08'0 0.0
2017-Nov-15 14:53N 26°04' W 080°08'0 0.0
2017-Nov-15 14:23N 26°04' W 080°08'0 0.0
2017-Nov-15 13:50N 26°04' W 080°08'0 0.0
2017-Nov-15 13:20N 26°04' W 080°08'0 0.0
2017-Nov-15 12:46N 26°04' W 080°08'0 0.0
2017-Nov-15 12:28N 26°04' W 080°08'0 0.0
2017-Nov-15 11:58N 26°04' W 080°08'0 0.0
2017-Nov-15 11:25N 26°04' W 080°08'0 0.0
2017-Nov-15 10:55N 26°04' W 080°08'0 0.0
2017-Nov-15 10:28N 26°04' W 080°08'0 0.0
2017-Nov-15 09:58N 26°04' W 080°08'0 0.0
2017-Nov-15 09:28N 26°04' W 080°08'0 0.0
2017-Nov-15 08:55N 26°04' W 080°08'0 0.0
2017-Nov-15 08:25N 26°04' W 080°08'0 0.0
2017-Nov-15 07:55N 26°04' W 080°08'0 0.0
2017-Nov-15 07:25N 26°04' W 080°08'0 0.0
2017-Nov-15 06:55N 26°04' W 080°08'0 0.0
2017-Nov-15 06:25N 26°04' W 080°08'0 0.0
2017-Nov-15 05:51N 26°04' W 080°08'0 0.0
2017-Nov-15 05:30N 26°04' W 080°08'0 0.0
2017-Nov-15 05:00N 26°04' W 080°08'0 0.0
2017-Nov-15 04:30N 26°04' W 080°08'0 0.0
2017-Nov-15 04:00N 26°04' W 080°08'0 0.0
2017-Nov-15 03:30N 26°04' W 080°08'0 0.0
2017-Nov-15 03:00N 26°04' W 080°08'0 0.0
2017-Nov-15 02:30N 26°04' W 080°08'0 0.0
2017-Nov-15 02:00N 26°04' W 080°08'0 0.0
2017-Nov-15 01:30N 26°04' W 080°08'0 0.0
2017-Nov-15 00:57N 26°04' W 080°08'0 0.0
2017-Nov-15 00:27N 26°04' W 080°08'0 0.0
2017-Nov-14 23:56N 26°04' W 080°08'0 0.0
2017-Nov-14 23:26N 26°04' W 080°08'0 0.0
2017-Nov-14 22:56N 26°04' W 080°08'0 0.0
2017-Nov-14 22:20N 26°04' W 080°08'0 0.0
2017-Nov-14 21:53N 26°04' W 080°08'0 0.0
2017-Nov-14 21:23N 26°04' W 080°08'0 0.0
2017-Nov-14 20:53N 26°04' W 080°08'0 0.0
2017-Nov-14 20:23N 26°04' W 080°08'0 0.0
2017-Nov-14 19:53N 26°04' W 080°08'0 0.0
2017-Nov-14 19:20N 26°04' W 080°08'0 0.0
2017-Nov-14 18:50N 26°04' W 080°08'0 0.0
2017-Nov-14 18:20N 26°04' W 080°08'0 0.0
2017-Nov-14 17:50N 26°04' W 080°08'0 0.0
2017-Nov-14 17:29N 26°04' W 080°08'0 0.0
2017-Nov-14 16:59N 26°04' W 080°08'0 0.0
2017-Nov-14 16:29N 26°04' W 080°08'0 0.0
2017-Nov-14 15:58N 26°04' W 080°08'0 0.0
2017-Nov-14 15:28N 26°04' W 080°08'0 0.0
2017-Nov-14 14:58N 26°04' W 080°08'0 0.0
2017-Nov-14 14:28N 26°04' W 080°08'0 0.0
2017-Nov-14 13:58N 26°04' W 080°08'0 0.0
2017-Nov-14 13:28N 26°04' W 080°08'0 0.0
2017-Nov-14 12:58N 26°04' W 080°08'0 0.0
2017-Nov-14 12:28N 26°04' W 080°08'0 0.0
2017-Nov-14 11:58N 26°04' W 080°08'0 0.0
2017-Nov-14 11:28N 26°04' W 080°08'0 0.0
2017-Nov-14 10:58N 26°04' W 080°08'0 0.0
2017-Nov-14 10:28N 26°04' W 080°08'0 0.0
2017-Nov-14 09:58N 26°04' W 080°08'0 0.0
2017-Nov-14 09:25N 26°04' W 080°08'0 0.0
2017-Nov-14 08:55N 26°04' W 080°08'0 0.0
2017-Nov-14 08:25N 26°04' W 080°08'0 0.0
2017-Nov-14 07:55N 26°04' W 080°08'0 0.0
2017-Nov-14 07:24N 26°04' W 080°08'0 0.0
2017-Nov-14 06:54N 26°04' W 080°08'0 0.0
2017-Nov-14 06:24N 26°04' W 080°08'0 0.0
2017-Nov-14 05:51N 26°04' W 080°08'0 0.0
2017-Nov-14 05:21N 26°04' W 080°08'0 0.0
2017-Nov-14 04:51N 26°04' W 080°08'0 0.0
2017-Nov-14 04:18N 26°04' W 080°08'0 0.0
2017-Nov-14 04:00N 26°04' W 080°08'0 0.0
2017-Nov-14 03:21N 26°04' W 080°08'0 0.0
2017-Nov-14 03:00N 26°04' W 080°08'0 0.0
2017-Nov-14 02:30N 26°04' W 080°08'0 0.0
2017-Nov-14 02:00N 26°04' W 080°08'0 0.0
2017-Nov-14 01:30N 26°04' W 080°08'0 0.0
2017-Nov-14 01:00N 26°04' W 080°08'0 0.0
2017-Nov-14 00:30N 26°04' W 080°08'0 0.0
2017-Nov-14 00:00N 26°04' W 080°08'0 0.0
2017-Nov-13 23:30N 26°04' W 080°08'0 0.0
2017-Nov-13 22:59N 26°04' W 080°08'0 0.0
2017-Nov-13 22:29N 26°04' W 080°08'0 0.0
2017-Nov-13 21:59N 26°04' W 080°08'0 0.0
2017-Nov-13 01:56N 26°04' W 080°08'0 0.0
2017-Nov-13 01:23N 26°04' W 080°08'0 0.0
2017-Nov-13 00:59N 26°04' W 080°08'0 0.0
2017-Nov-13 00:29N 26°04' W 080°08'0 0.0
2017-Nov-12 23:50N 26°04' W 080°08'0 0.0
2017-Nov-12 23:29N 26°04' W 080°08'0 0.0
2017-Nov-12 22:59N 26°04' W 080°08'0 0.0
2017-Nov-12 22:20N 26°04' W 080°08'0 0.0
2017-Nov-12 21:50N 26°04' W 080°08'0 0.0
2017-Nov-12 21:17N 26°04' W 080°08'0 0.0
2017-Nov-12 20:53N 26°04' W 080°08'0 0.0
2017-Nov-12 20:23N 26°04' W 080°08'0 0.0
2017-Nov-12 19:50N 26°04' W 080°08'0 0.0
2017-Nov-12 19:20N 26°04' W 080°08'0 0.0
2017-Nov-12 18:53N 26°04' W 080°08'0 0.0
2017-Nov-12 18:20N 26°04' W 080°08'0 0.0
2017-Nov-12 17:58N 26°04' W 080°08'0 0.0
2017-Nov-12 17:28N 26°04' W 080°08'0 0.0
2017-Nov-12 16:58N 26°04' W 080°08'0 0.0
2017-Nov-12 16:13N 26°04' W 080°08'0 0.0
2017-Nov-12 15:58N 26°04' W 080°08'0 0.0
2017-Nov-12 15:28N 26°04' W 080°08'0 0.0
2017-Nov-12 14:49N 26°04' W 080°08'0 0.0
2017-Nov-12 14:19N 26°04' W 080°08'0 0.0
2017-Nov-12 13:49N 26°04' W 080°08'0 0.0
2017-Nov-12 13:22N 26°04' W 080°08'0 0.0
2017-Nov-12 12:52N 26°04' W 080°08'0 0.0
2017-Nov-12 12:22N 26°04' W 080°08'0 0.0
2017-Nov-12 11:37N 26°04' W 080°08'0 0.0
2017-Nov-12 11:22N 26°04' W 080°08'0 0.0
2017-Nov-12 10:40N 26°04' W 080°08'0 0.0
2017-Nov-12 10:25N 26°04' W 080°08'0 0.0
2017-Nov-12 09:52N 26°04' W 080°08'0 0.0
2017-Nov-12 09:22N 26°04' W 080°08'0 0.0
2017-Nov-12 08:55N 26°04' W 080°08'0 0.0
2017-Nov-12 08:25N 26°04' W 080°08'0 0.0
2017-Nov-12 07:55N 26°04' W 080°08'0 0.0
2017-Nov-12 07:28N 26°04' W 080°08'0 0.0
2017-Nov-12 06:58N 26°04' W 080°08'0 0.0
2017-Nov-12 06:28N 26°04' W 080°08'0 0.0
2017-Nov-12 05:58N 26°04' W 080°08'0 0.0
2017-Nov-12 05:25N 26°04' W 080°08'0 0.0
2017-Nov-12 04:58N 26°04' W 080°08'0 0.0
2017-Nov-12 04:28N 26°04' W 080°08'0 0.0
2017-Nov-12 03:55N 26°04' W 080°08'0 0.0
2017-Nov-12 03:28N 26°04' W 080°08'0 0.0
2017-Nov-12 02:58N 26°04' W 080°08'0 0.0
2017-Nov-12 02:28N 26°04' W 080°08'0 0.0
2017-Nov-12 01:58N 26°04' W 080°08'0 0.0
2017-Nov-12 01:28N 26°04' W 080°08'0 0.0
2017-Nov-12 00:58N 26°04' W 080°08'0 0.0
2017-Nov-12 00:28N 26°04' W 080°08'0 0.0
2017-Nov-11 23:55N 26°04' W 080°08'0 0.0
2017-Nov-11 23:28N 26°04' W 080°08'0 0.0
2017-Nov-11 22:58N 26°04' W 080°08'0 0.0
2017-Nov-11 22:28N 26°04' W 080°08'0 0.0
2017-Nov-11 21:55N 26°04' W 080°08'0 0.0
2017-Nov-11 21:28N 26°04' W 080°08'0 0.0
2017-Nov-11 20:58N 26°04' W 080°08'0 0.0
2017-Nov-11 20:28N 26°04' W 080°08'0 0.0
2017-Nov-11 19:58N 26°04' W 080°08'0 0.0
2017-Nov-11 19:16N 26°04' W 080°08'0 0.0
2017-Nov-11 18:49N 26°04' W 080°08'0 0.0
2017-Nov-11 18:19N 26°04' W 080°08'0 0.0
2017-Nov-11 17:58N 26°04' W 080°08'0 0.0
2017-Nov-11 17:19N 26°04' W 080°08'0 0.0
2017-Nov-11 16:49N 26°04' W 080°08'0 0.0
2017-Nov-11 16:07N 26°04' W 080°08'0 0.0
2017-Nov-11 15:52N 26°04' W 080°08'0 0.0
2017-Nov-11 15:22N 26°04' W 080°08'0 0.0
2017-Nov-11 14:52N 26°04' W 080°08'0 0.0
2017-Nov-11 14:22N 26°04' W 080°08'0 0.0
2017-Nov-11 13:52N 26°04' W 080°08'0 0.0
2017-Nov-11 13:25N 26°04' W 080°08'0 0.0
2017-Nov-11 12:55N 26°04' W 080°08'0 0.0
2017-Nov-11 12:25N 26°04' W 080°08'0 0.0
2017-Nov-11 11:55N 26°04' W 080°08'0 0.0
2017-Nov-11 11:25N 26°04' W 080°08'0 0.0
2017-Nov-11 10:55N 26°04' W 080°08'0 0.0
2017-Nov-11 10:28N 26°04' W 080°08'0 0.0
2017-Nov-11 09:55N 26°04' W 080°08'0 0.0
2017-Nov-11 09:28N 26°04' W 080°08'0 0.0
2017-Nov-11 08:55N 26°04' W 080°08'0 0.0
2017-Nov-11 08:25N 26°04' W 080°08'0 0.0
2017-Nov-11 07:55N 26°04' W 080°08'0 0.0
2017-Nov-11 07:25N 26°04' W 080°08'0 0.0
2017-Nov-11 06:55N 26°04' W 080°08'0 0.0
2017-Nov-11 06:25N 26°04' W 080°08'0 0.0
2017-Nov-11 05:55N 26°04' W 080°08'0 0.0
2017-Nov-11 05:28N 26°04' W 080°08'0 0.0
2017-Nov-11 04:58N 26°04' W 080°08'0 0.0
2017-Nov-11 04:28N 26°04' W 080°08'0 0.0
2017-Nov-11 03:58N 26°04' W 080°08'0 0.0
2017-Nov-11 03:28N 26°04' W 080°08'0 0.0
2017-Nov-11 02:58N 26°04' W 080°08'0 0.0
2017-Nov-11 02:28N 26°04' W 080°08'0 0.0
2017-Nov-11 01:58N 26°04' W 080°08'0 0.0
2017-Nov-11 01:28N 26°04' W 080°08'0 0.0
2017-Nov-11 00:58N 26°04' W 080°08'0 0.0
2017-Nov-11 00:28N 26°04' W 080°08'0 0.0
2017-Nov-10 23:58N 26°04' W 080°08'0 0.0
2017-Nov-10 23:01N 26°04' W 080°08'0 0.1
2017-Nov-10 22:58N 26°04' W 080°08'0 0.0
2017-Nov-10 22:28N 26°04' W 080°08'0 0.0
2017-Nov-10 21:58N 26°04' W 080°08'0 0.0
2017-Nov-10 21:28N 26°04' W 080°08'0 0.0
2017-Nov-10 20:52N 26°04' W 080°08'0 0.0
2017-Nov-10 20:28N 26°04' W 080°08'0 0.0
2017-Nov-10 19:55N 26°04' W 080°08'0 0.0
2017-Nov-10 19:28N 26°04' W 080°08'0 0.0
2017-Nov-10 18:49N 26°04' W 080°08'0 0.0
2017-Nov-10 18:22N 26°04' W 080°08'0 0.0
2017-Nov-10 17:58N 26°04' W 080°08'0 0.0
2017-Nov-10 17:31N 26°04' W 080°08'0 0.0
2017-Nov-10 16:52N 26°04' W 080°08'0 0.0
2017-Nov-10 16:28N 26°04' W 080°08'0 0.0
2017-Nov-10 15:52N 26°04' W 080°08'0 0.0
2017-Nov-10 15:25N 26°04' W 080°08'0 0.0
2017-Nov-10 14:55N 26°04' W 080°08'0 0.0
2017-Nov-10 14:25N 26°04' W 080°08'0 0.0
2017-Nov-10 13:54N 26°04' W 080°08'0 0.0
2017-Nov-10 13:21N 26°04' W 080°08'0 0.0
2017-Nov-10 12:58N 26°04' W 080°08'0 0.0
2017-Nov-10 12:28N 26°04' W 080°08'0 0.0
2017-Nov-10 11:57N 26°04' W 080°08'0 0.0
2017-Nov-10 11:21N 26°04' W 080°08'0 0.0
2017-Nov-10 10:57N 26°04' W 080°08'0 0.0
2017-Nov-10 10:24N 26°04' W 080°08'0 0.0
2017-Nov-10 10:01N 26°04' W 080°08'0 0.0
2017-Nov-10 09:27N 26°04' W 080°08'0 0.0
2017-Nov-10 09:00N 26°04' W 080°08'0 0.0
2017-Nov-10 08:30N 26°04' W 080°08'0 0.0
2017-Nov-10 08:00N 26°04' W 080°08'0 0.0
2017-Nov-10 07:30N 26°04' W 080°08'0 0.0
2017-Nov-10 07:00N 26°04' W 080°08'0 0.0
2017-Nov-10 06:30N 26°04' W 080°08'0 0.0
2017-Nov-10 06:00N 26°04' W 080°08'0 0.0
2017-Nov-10 05:30N 26°04' W 080°08'0 0.0
2017-Nov-10 05:00N 26°04' W 080°08'0 0.0
2017-Nov-10 04:30N 26°04' W 080°08'0 0.0
2017-Nov-10 04:01N 26°04' W 080°08'0 0.0
2017-Nov-10 03:30N 26°04' W 080°08'0 0.0
2017-Nov-10 02:51N 26°04' W 080°08'0 0.0
2017-Nov-10 02:30N 26°04' W 080°08'0 0.0
2017-Nov-10 02:00N 26°04' W 080°08'0 0.0
2017-Nov-10 01:21N 26°04' W 080°08'0 0.0
2017-Nov-10 00:51N 26°04' W 080°08'  

Dump ship's entire track history